Time,TemperatureF,DewpointF,PressureIn,WindDirection,WindDirectionDegrees,WindSpeedMPH,WindSpeedGustMPH,Humidity,HourlyPrecipIn,Conditions,Clouds,dailyrainin,SoftwareType,DateUTC
2013-02-06 00:09:00,54.1,53.0,30.00,SE,130,0.0,0.0,96,0.00,,,0.00,weatherlink.com 1.10,2013-02-06 06:09:00,
2013-02-06 00:24:00,53.9,53.0,30.01,ESE,121,1.0,8.0,97,0.00,,,0.00,weatherlink.com 1.10,2013-02-06 06:24:00,
2013-02-06 00:39:00,53.8,53.0,30.00,SE,138,0.0,4.0,97,0.00,,,0.00,weatherlink.com 1.10,2013-02-06 06:39:00,
2013-02-06 00:54:00,53.9,53.0,30.00,SE,144,0.0,5.0,97,0.00,,,0.00,weatherlink.com 1.10,2013-02-06 06:54:00,
2013-02-06 01:09:00,53.8,53.0,30.00,SE,144,0.0,3.0,97,0.00,,,0.00,weatherlink.com 1.10,2013-02-06 07:09:00,
2013-02-06 01:24:00,53.6,53.0,30.00,SE,140,4.0,8.0,97,0.00,,,0.00,weatherlink.com 1.10,2013-02-06 07:24:00,
2013-02-06 01:39:00,53.5,53.0,30.00,SE,140,0.0,4.0,97,0.00,,,0.00,weatherlink.com 1.10,2013-02-06 07:39:00,
2013-02-06 01:54:00,53.3,53.0,29.99,SE,140,0.0,3.0,97,0.00,,,0.00,weatherlink.com 1.10,2013-02-06 07:54:00,
2013-02-06 02:09:00,53.1,52.0,29.98,SE,133,0.0,1.0,97,0.00,,,0.00,weatherlink.com 1.10,2013-02-06 08:09:00,
2013-02-06 02:24:00,53.0,52.0,29.98,SE,133,0.0,1.0,97,0.00,,,0.00,weatherlink.com 1.10,2013-02-06 08:24:00,
2013-02-06 02:39:00,53.0,52.0,29.98,SE,133,0.0,3.0,97,0.00,,,0.00,weatherlink.com 1.10,2013-02-06 08:39:00,
2013-02-06 02:54:00,52.9,52.0,29.97,SE,133,2.0,3.0,97,0.00,,,0.00,weatherlink.com 1.10,2013-02-06 08:54:00,
2013-02-06 03:10:00,53.1,52.0,29.97,SE,132,0.0,5.0,97,0.00,,,0.00,weatherlink.com 1.10,2013-02-06 09:10:00,
2013-02-06 03:24:00,53.2,52.0,29.97,ESE,113,0.0,5.0,97,0.00,,,0.00,weatherlink.com 1.10,2013-02-06 09:24:00,
2013-02-06 03:39:00,53.2,52.0,29.97,SE,138,3.0,7.0,97,0.00,,,0.00,weatherlink.com 1.10,2013-02-06 09:39:00,
2013-02-06 03:54:00,53.3,53.0,29.97,SE,144,0.0,9.0,97,0.00,,,0.00,weatherlink.com 1.10,2013-02-06 09:54:00,
2013-02-06 04:09:00,53.4,53.0,29.98,ESE,123,4.0,8.0,98,0.00,,,0.00,weatherlink.com 1.10,2013-02-06 10:09:00,
2013-02-06 04:24:00,53.5,53.0,29.98,SE,125,0.0,7.0,98,0.00,,,0.00,weatherlink.com 1.10,2013-02-06 10:24:00,
2013-02-06 04:39:00,53.7,53.0,29.98,SE,145,3.0,7.0,98,0.00,,,0.00,weatherlink.com 1.10,2013-02-06 10:39:00,
2013-02-06 04:54:00,53.9,53.0,29.98,SE,145,4.0,8.0,98,0.00,,,0.00,weatherlink.com 1.10,2013-02-06 10:54:00,
2013-02-06 05:09:00,53.9,53.0,29.98,ESE,121,0.0,4.0,98,0.00,,,0.00,weatherlink.com 1.10,2013-02-06 11:09:00,
2013-02-06 05:24:00,53.8,53.0,29.98,East,99,0.0,5.0,98,0.00,,,0.00,weatherlink.com 1.10,2013-02-06 11:24:00,
2013-02-06 05:39:00,53.7,53.0,29.97,ESE,123,0.0,7.0,98,0.00,,,0.00,weatherlink.com 1.10,2013-02-06 11:39:00,
2013-02-06 05:54:00,53.6,53.0,29.97,ESE,107,0.0,5.0,98,0.00,,,0.00,weatherlink.com 1.10,2013-02-06 11:54:00,
2013-02-06 06:09:00,53.6,53.0,29.97,SE,126,3.0,9.0,98,0.00,,,0.00,weatherlink.com 1.10,2013-02-06 12:09:00,
2013-02-06 06:24:00,53.5,53.0,29.96,ESE,123,0.0,8.0,98,0.00,,,0.00,weatherlink.com 1.10,2013-02-06 12:24:00,
2013-02-06 06:39:00,53.5,53.0,29.97,ESE,123,0.0,6.0,98,0.00,,,0.00,weatherlink.com 1.10,2013-02-06 12:39:00,
2013-02-06 06:54:00,53.2,53.0,29.97,ESE,104,4.0,7.0,98,0.00,,,0.00,weatherlink.com 1.10,2013-02-06 12:54:00,
2013-02-06 07:19:00,52.7,52.0,29.98,ESE,112,1.0,8.0,98,0.00,,,0.00,weatherlink.com 1.10,2013-02-06 13:19:00,
2013-02-06 07:24:00,52.7,52.0,29.98,ESE,112,0.0,8.0,98,0.00,,,0.00,weatherlink.com 1.10,2013-02-06 13:24:00,
2013-02-06 07:40:00,52.6,52.0,29.97,ESE,110,2.0,5.0,98,0.00,,,0.00,weatherlink.com 1.10,2013-02-06 13:40:00,
2013-02-06 07:54:00,52.4,52.0,29.98,ESE,109,2.0,8.0,98,0.00,,,0.00,weatherlink.com 1.10,2013-02-06 13:54:00,
2013-02-06 08:10:00,52.4,52.0,29.98,ESE,103,0.0,3.0,98,0.00,,,0.00,weatherlink.com 1.10,2013-02-06 14:10:00,
2013-02-06 08:24:00,52.5,52.0,29.98,ESE,108,2.0,5.0,98,0.00,,,0.00,weatherlink.com 1.10,2013-02-06 14:24:00,
2013-02-06 08:40:00,52.6,52.0,29.98,SE,130,2.0,4.0,98,0.00,,,0.00,weatherlink.com 1.10,2013-02-06 14:40:00,
2013-02-06 08:55:00,52.7,52.0,29.98,East,101,2.0,7.0,98,0.00,,,0.00,weatherlink.com 1.10,2013-02-06 14:55:00,
2013-02-06 09:09:00,53.0,53.0,29.98,ESE,111,7.0,8.0,98,0.00,,,0.00,weatherlink.com 1.10,2013-02-06 15:09:00,
2013-02-06 09:24:00,53.4,53.0,29.98,ESE,102,5.0,9.0,98,0.00,,,0.00,weatherlink.com 1.10,2013-02-06 15:24:00,
2013-02-06 09:39:00,53.8,53.0,29.98,ESE,118,4.0,8.0,98,0.00,,,0.00,weatherlink.com 1.10,2013-02-06 15:39:00,
2013-02-06 09:55:00,54.2,54.0,29.98,SE,132,5.0,8.0,98,0.00,,,0.00,weatherlink.com 1.10,2013-02-06 15:55:00,
2013-02-06 10:09:00,54.5,54.0,29.99,SE,132,5.0,7.0,98,0.00,,,0.00,weatherlink.com 1.10,2013-02-06 16:09:00,
2013-02-06 10:25:00,55.0,55.0,29.99,SSE,155,5.0,11.0,98,0.00,,,0.00,weatherlink.com 1.10,2013-02-06 16:25:00,
2013-02-06 10:40:00,55.2,55.0,29.98,SE,125,2.0,9.0,98,0.00,,,0.00,weatherlink.com 1.10,2013-02-06 16:40:00,
2013-02-06 10:55:00,55.4,55.0,29.98,SE,133,0.0,7.0,98,0.00,,,0.00,weatherlink.com 1.10,2013-02-06 16:55:00,
2013-02-06 11:10:00,55.9,55.0,29.97,SE,138,3.0,6.0,98,0.00,,,0.00,weatherlink.com 1.10,2013-02-06 17:10:00,
2013-02-06 11:25:00,56.3,56.0,29.96,ESE,122,7.0,10.0,98,0.00,,,0.00,weatherlink.com 1.10,2013-02-06 17:25:00,
2013-02-06 11:40:00,56.7,56.0,29.96,SE,132,6.0,9.0,98,0.00,,,0.00,weatherlink.com 1.10,2013-02-06 17:40:00,
2013-02-06 12:10:00,57.3,57.0,29.94,SE,142,7.0,8.0,98,0.00,,,0.00,weatherlink.com 1.10,2013-02-06 18:10:00,
2013-02-06 12:25:00,57.4,57.0,29.93,SE,136,4.0,7.0,98,0.00,,,0.00,weatherlink.com 1.10,2013-02-06 18:25:00,
2013-02-06 12:40:00,57.5,57.0,29.92,SSE,153,1.0,8.0,98,0.00,,,0.00,weatherlink.com 1.10,2013-02-06 18:40:00,
2013-02-06 12:55:00,57.7,57.0,29.91,SE,142,0.0,7.0,98,0.00,,,0.00,weatherlink.com 1.10,2013-02-06 18:55:00,
2013-02-06 13:10:00,58.1,58.0,29.91,SSE,153,0.0,7.0,98,0.00,,,0.00,weatherlink.com 1.10,2013-02-06 19:10:00,
2013-02-06 13:25:00,58.5,58.0,29.89,ESE,123,10.0,11.0,98,0.00,,,0.00,weatherlink.com 1.10,2013-02-06 19:25:00,
2013-02-06 13:40:00,59.4,59.0,29.89,SSE,156,7.0,11.0,98,0.00,,,0.00,weatherlink.com 1.10,2013-02-06 19:40:00,
2013-02-06 13:55:00,60.4,60.0,29.88,SE,126,6.0,10.0,98,0.00,,,0.00,weatherlink.com 1.10,2013-02-06 19:55:00,
2013-02-06 14:10:00,61.5,61.0,29.87,SSE,152,2.0,8.0,98,0.00,,,0.00,weatherlink.com 1.10,2013-02-06 20:10:00,
2013-02-06 14:25:00,62.0,62.0,29.86,ESE,120,2.0,10.0,98,0.00,,,0.00,weatherlink.com 1.10,2013-02-06 20:25:00,
2013-02-06 14:40:00,63.8,62.0,29.85,ESE,115,5.0,11.0,92,0.00,,,0.00,weatherlink.com 1.10,2013-02-06 20:40:00,
2013-02-06 14:56:00,64.7,61.0,29.84,ESE,111,5.0,11.0,87,0.00,,,0.00,weatherlink.com 1.10,2013-02-06 20:56:00,
2013-02-06 15:10:00,66.3,61.0,29.84,ESE,121,5.0,10.0,83,0.00,,,0.00,weatherlink.com 1.10,2013-02-06 21:10:00,
2013-02-06 15:25:00,67.1,60.0,29.83,SE,129,8.0,11.0,78,0.00,,,0.00,weatherlink.com 1.10,2013-02-06 21:25:00,
2013-02-06 15:56:00,64.3,60.0,29.82,East,99,3.0,17.0,87,0.00,,,0.00,weatherlink.com 1.10,2013-02-06 21:56:00,
2013-02-06 16:10:00,63.0,60.0,29.82,SE,132,8.0,15.0,89,0.00,,,0.00,weatherlink.com 1.10,2013-02-06 22:10:00,
2013-02-06 16:26:00,61.7,59.0,29.83,SE,134,11.0,18.0,90,0.00,,,0.00,weatherlink.com 1.10,2013-02-06 22:26:00,
2013-02-06 16:41:00,60.3,58.0,29.82,ESE,108,8.0,17.0,92,0.00,,,0.00,weatherlink.com 1.10,2013-02-06 22:41:00,
2013-02-06 16:56:00,59.4,57.0,29.83,ESE,111,13.0,23.0,93,0.00,,,0.00,weatherlink.com 1.10,2013-02-06 22:56:00,
2013-02-06 17:11:00,59.0,57.0,29.82,ESE,119,13.0,21.0,94,0.00,,,0.00,weatherlink.com 1.10,2013-02-06 23:11:00,
2013-02-06 17:26:00,58.6,57.0,29.82,ESE,109,13.0,19.0,93,0.00,,,0.00,weatherlink.com 1.10,2013-02-06 23:26:00,
2013-02-06 17:41:00,58.5,57.0,29.82,SE,124,6.0,17.0,93,0.00,,,0.00,weatherlink.com 1.10,2013-02-06 23:41:00,
2013-02-06 17:56:00,58.5,57.0,29.82,ESE,113,12.0,15.0,93,0.00,,,0.00,weatherlink.com 1.10,2013-02-06 23:56:00,
2013-02-06 18:11:00,58.3,56.0,29.82,ESE,116,10.0,16.0,92,0.00,,,0.00,weatherlink.com 1.10,2013-02-07 00:11:00,
2013-02-06 18:26:00,58.4,56.0,29.82,ESE,113,10.0,16.0,92,0.00,,,0.00,weatherlink.com 1.10,2013-02-07 00:26:00,
2013-02-06 18:41:00,58.2,56.0,29.82,ESE,118,4.0,16.0,91,0.00,,,0.00,weatherlink.com 1.10,2013-02-07 00:41:00,
2013-02-06 18:56:00,58.3,56.0,29.83,ESE,119,7.0,16.0,91,0.00,,,0.00,weatherlink.com 1.10,2013-02-07 00:56:00,
2013-02-06 19:11:00,58.5,56.0,29.83,SE,124,8.0,14.0,90,0.00,,,0.00,weatherlink.com 1.10,2013-02-07 01:11:00,
2013-02-06 19:26:00,58.6,56.0,29.84,SE,127,8.0,15.0,90,0.00,,,0.00,weatherlink.com 1.10,2013-02-07 01:26:00,
2013-02-06 19:41:00,58.7,56.0,29.84,ESE,115,7.0,23.0,90,0.00,,,0.00,weatherlink.com 1.10,2013-02-07 01:41:00,
2013-02-06 19:56:00,58.8,56.0,29.84,SE,125,15.0,23.0,90,0.00,,,0.00,weatherlink.com 1.10,2013-02-07 01:56:00,
2013-02-06 20:11:00,58.6,56.0,29.85,SE,130,8.0,16.0,90,0.00,,,0.00,weatherlink.com 1.10,2013-02-07 02:11:00,
2013-02-06 20:26:00,58.2,55.0,29.85,SE,128,12.0,16.0,90,0.00,,,0.00,weatherlink.com 1.10,2013-02-07 02:26:00,
2013-02-06 20:41:00,58.0,55.0,29.86,SE,136,16.0,17.0,91,0.00,,,0.00,weatherlink.com 1.10,2013-02-07 02:41:00,
2013-02-06 20:56:00,57.9,55.0,29.86,ESE,118,9.0,17.0,91,0.00,,,0.00,weatherlink.com 1.10,2013-02-07 02:56:00,
2013-02-06 21:11:00,57.8,56.0,29.85,ESE,121,7.0,16.0,92,0.00,,,0.00,weatherlink.com 1.10,2013-02-07 03:11:00,
2013-02-06 21:26:00,57.7,55.0,29.86,SE,132,13.0,18.0,92,0.00,,,0.00,weatherlink.com 1.10,2013-02-07 03:26:00,
2013-02-06 21:41:00,57.6,55.0,29.86,SE,142,8.0,16.0,92,0.00,,,0.00,weatherlink.com 1.10,2013-02-07 03:41:00,
2013-02-06 21:56:00,57.4,55.0,29.86,South,182,7.0,16.0,92,0.00,,,0.00,weatherlink.com 1.10,2013-02-07 03:56:00,
2013-02-06 22:11:00,57.2,55.0,29.87,ESE,115,12.0,19.0,92,0.00,,,0.00,weatherlink.com 1.10,2013-02-07 04:11:00,
2013-02-06 22:26:00,57.1,55.0,29.86,SE,145,6.0,16.0,93,0.00,,,0.00,weatherlink.com 1.10,2013-02-07 04:26:00,
2013-02-06 22:41:00,57.1,55.0,29.86,SE,136,4.0,16.0,93,0.00,,,0.00,weatherlink.com 1.10,2013-02-07 04:41:00,
2013-02-06 22:56:00,56.9,55.0,29.86,ESE,123,11.0,15.0,93,0.00,,,0.00,weatherlink.com 1.10,2013-02-07 04:56:00,
2013-02-06 23:11:00,56.9,55.0,29.86,ESE,117,7.0,13.0,94,0.00,,,0.00,weatherlink.com 1.10,2013-02-07 05:11:00,
2013-02-06 23:26:00,56.9,55.0,29.85,SE,127,5.0,15.0,94,0.00,,,0.00,weatherlink.com 1.10,2013-02-07 05:26:00,
2013-02-06 23:41:00,56.9,55.0,29.87,SSE,150,0.0,16.0,94,0.00,,,0.00,weatherlink.com 1.10,2013-02-07 05:41:00,
2013-02-06 23:56:00,57.0,55.0,29.88,NNE,13,5.0,14.0,94,0.00,,,0.00,weatherlink.com 1.10,2013-02-07 05:56:00,